sensor_id;sensor_type;location;lat;lon;timestamp;temperature;humidity
19888;DHT22;10106;51.332;12.336;2022-09-29T00:00:06;7.50;99.90
19888;DHT22;10106;51.332;12.336;2022-09-29T00:02:32;7.50;99.90
19888;DHT22;10106;51.332;12.336;2022-09-29T00:04:57;7.50;99.90
19888;DHT22;10106;51.332;12.336;2022-09-29T00:07:27;7.50;99.90
19888;DHT22;10106;51.332;12.336;2022-09-29T00:09:53;7.50;99.90
19888;DHT22;10106;51.332;12.336;2022-09-29T00:12:18;7.40;99.90
19888;DHT22;10106;51.332;12.336;2022-09-29T00:14:44;7.40;99.90
19888;DHT22;10106;51.332;12.336;2022-09-29T00:17:09;7.30;99.90
19888;DHT22;10106;51.332;12.336;2022-09-29T00:19:35;7.20;99.90
19888;DHT22;10106;51.332;12.336;2022-09-29T00:22:00;7.10;99.90
19888;DHT22;10106;51.332;12.336;2022-09-29T00:24:26;6.90;99.90
19888;DHT22;10106;51.332;12.336;2022-09-29T00:26:51;6.80;99.90
19888;DHT22;10106;51.332;12.336;2022-09-29T00:29:17;6.70;99.90
19888;DHT22;10106;51.332;12.336;2022-09-29T00:31:43;6.70;99.90
19888;DHT22;10106;51.332;12.336;2022-09-29T00:34:08;6.60;99.90
19888;DHT22;10106;51.332;12.336;2022-09-29T00:36:34;6.50;99.90
19888;DHT22;10106;51.332;12.336;2022-09-29T00:38:59;6.50;99.90
19888;DHT22;10106;51.332;12.336;2022-09-29T00:41:26;6.40;99.90
19888;DHT22;10106;51.332;12.336;2022-09-29T00:43:53;6.30;99.90
19888;DHT22;10106;51.332;12.336;2022-09-29T00:46:21;6.30;99.90
19888;DHT22;10106;51.332;12.336;2022-09-29T00:48:48;6.20;99.90
19888;DHT22;10106;51.332;12.336;2022-09-29T00:51:14;6.20;99.90
19888;DHT22;10106;51.332;12.336;2022-09-29T00:53:40;6.10;99.90
19888;DHT22;10106;51.332;12.336;2022-09-29T00:56:08;6.00;99.90
19888;DHT22;10106;51.332;12.336;2022-09-29T00:58:52;6.00;99.90
19888;DHT22;10106;51.332;12.336;2022-09-29T01:01:23;6.00;99.90
19888;DHT22;10106;51.332;12.336;2022-09-29T01:03:52;5.90;99.90
19888;DHT22;10106;51.332;12.336;2022-09-29T01:06:20;5.90;99.90
19888;DHT22;10106;51.332;12.336;2022-09-29T01:08:53;5.90;99.90
19888;DHT22;10106;51.332;12.336;2022-09-29T01:11:22;5.90;99.90
19888;DHT22;10106;51.332;12.336;2022-09-29T01:13:48;6.00;99.90
19888;DHT22;10106;51.332;12.336;2022-09-29T01:16:14;6.00;99.90
19888;DHT22;10106;51.332;12.336;2022-09-29T01:18:39;6.10;99.90
19888;DHT22;10106;51.332;12.336;2022-09-29T01:21:10;6.20;99.90
19888;DHT22;10106;51.332;12.336;2022-09-29T01:34:37;6.50;99.90
19888;DHT22;10106;51.332;12.336;2022-09-29T01:42:12;6.60;99.90
19888;DHT22;10106;51.332;12.336;2022-09-29T01:44:50;6.60;99.90
19888;DHT22;10106;51.332;12.336;2022-09-29T01:47:21;6.60;99.90
19888;DHT22;10106;51.332;12.336;2022-09-29T01:49:49;6.60;99.90
19888;DHT22;10106;51.332;12.336;2022-09-29T01:52:17;6.70;99.90
19888;DHT22;10106;51.332;12.336;2022-09-29T01:55:04;6.70;99.90
19888;DHT22;10106;51.332;12.336;2022-09-29T02:00:11;6.70;99.90
19888;DHT22;10106;51.332;12.336;2022-09-29T02:02:39;6.70;99.90
19888;DHT22;10106;51.332;12.336;2022-09-29T02:05:14;6.70;99.90
19888;DHT22;10106;51.332;12.336;2022-09-29T02:07:43;6.70;99.90
19888;DHT22;10106;51.332;12.336;2022-09-29T02:10:09;6.70;99.90
19888;DHT22;10106;51.332;12.336;2022-09-29T02:12:37;6.60;99.90
19888;DHT22;10106;51.332;12.336;2022-09-29T02:15:04;6.50;99.90
19888;DHT22;10106;51.332;12.336;2022-09-29T02:17:32;6.40;99.90
19888;DHT22;10106;51.332;12.336;2022-09-29T02:19:59;6.40;99.90
19888;DHT22;10106;51.332;12.336;2022-09-29T02:22:24;6.30;99.90
19888;DHT22;10106;51.332;12.336;2022-09-29T02:24:51;6.20;99.90
19888;DHT22;10106;51.332;12.336;2022-09-29T02:27:17;6.20;99.90
19888;DHT22;10106;51.332;12.336;2022-09-29T02:29:42;6.10;99.90
19888;DHT22;10106;51.332;12.336;2022-09-29T02:32:08;6.00;99.90
19888;DHT22;10106;51.332;12.336;2022-09-29T02:34:35;6.00;99.90
19888;DHT22;10106;51.332;12.336;2022-09-29T02:37:06;6.00;99.90
19888;DHT22;10106;51.332;12.336;2022-09-29T02:39:36;5.90;99.90
19888;DHT22;10106;51.332;12.336;2022-09-29T02:42:06;5.90;99.90
19888;DHT22;10106;51.332;12.336;2022-09-29T02:55:19;5.70;99.90
19888;DHT22;10106;51.332;12.336;2022-09-29T03:00:11;5.80;99.90
19888;DHT22;10106;51.332;12.336;2022-09-29T03:02:37;5.80;99.90
19888;DHT22;10106;51.332;12.336;2022-09-29T03:05:03;5.80;99.90
19888;DHT22;10106;51.332;12.336;2022-09-29T03:07:30;5.70;99.90
19888;DHT22;10106;51.332;12.336;2022-09-29T03:09:55;5.80;99.90
19888;DHT22;10106;51.332;12.336;2022-09-29T03:12:21;5.80;99.90
19888;DHT22;10106;51.332;12.336;2022-09-29T03:14:46;5.80;99.90
19888;DHT22;10106;51.332;12.336;2022-09-29T03:17:12;5.80;99.90
19888;DHT22;10106;51.332;12.336;2022-09-29T03:19:37;5.80;99.90
19888;DHT22;10106;51.332;12.336;2022-09-29T03:22:03;5.70;99.90
19888;DHT22;10106;51.332;12.336;2022-09-29T03:24:29;5.70;99.90
19888;DHT22;10106;51.332;12.336;2022-09-29T03:26:56;5.70;99.90
19888;DHT22;10106;51.332;12.336;2022-09-29T03:29:21;5.70;99.90
19888;DHT22;10106;51.332;12.336;2022-09-29T03:31:47;5.60;99.90
19888;DHT22;10106;51.332;12.336;2022-09-29T03:34:12;5.60;99.90
19888;DHT22;10106;51.332;12.336;2022-09-29T03:36:38;5.60;99.90
19888;DHT22;10106;51.332;12.336;2022-09-29T03:39:05;5.50;99.90
19888;DHT22;10106;51.332;12.336;2022-09-29T03:41:31;5.50;99.90
19888;DHT22;10106;51.332;12.336;2022-09-29T03:43:56;5.50;99.90
19888;DHT22;10106;51.332;12.336;2022-09-29T03:46:22;5.50;99.90
19888;DHT22;10106;51.332;12.336;2022-09-29T03:48:47;5.50;99.90
19888;DHT22;10106;51.332;12.336;2022-09-29T03:51:13;5.60;99.90
19888;DHT22;10106;51.332;12.336;2022-09-29T03:53:38;5.70;99.90
19888;DHT22;10106;51.332;12.336;2022-09-29T03:56:04;5.70;99.90
19888;DHT22;10106;51.332;12.336;2022-09-29T03:58:30;5.70;99.90
19888;DHT22;10106;51.332;12.336;2022-09-29T04:00:55;5.80;99.90
19888;DHT22;10106;51.332;12.336;2022-09-29T04:03:21;5.80;99.90
19888;DHT22;10106;51.332;12.336;2022-09-29T04:05:47;5.80;99.90
19888;DHT22;10106;51.332;12.336;2022-09-29T04:08:13;5.80;99.90
19888;DHT22;10106;51.332;12.336;2022-09-29T04:10:39;5.90;99.90
19888;DHT22;10106;51.332;12.336;2022-09-29T04:13:05;5.80;99.90
19888;DHT22;10106;51.332;12.336;2022-09-29T04:15:31;5.80;99.90
19888;DHT22;10106;51.332;12.336;2022-09-29T04:17:57;5.80;99.90
19888;DHT22;10106;51.332;12.336;2022-09-29T04:20:23;5.80;99.90
19888;DHT22;10106;51.332;12.336;2022-09-29T04:22:49;5.80;99.90
19888;DHT22;10106;51.332;12.336;2022-09-29T04:25:14;5.80;99.90
19888;DHT22;10106;51.332;12.336;2022-09-29T04:27:40;5.70;99.90
19888;DHT22;10106;51.332;12.336;2022-09-29T04:30:05;5.70;99.90
19888;DHT22;10106;51.332;12.336;2022-09-29T04:32:31;5.70;99.90
19888;DHT22;10106;51.332;12.336;2022-09-29T04:34:56;5.60;99.90
19888;DHT22;10106;51.332;12.336;2022-09-29T04:37:22;5.60;99.90
19888;DHT22;10106;51.332;12.336;2022-09-29T04:39:47;5.60;99.90
19888;DHT22;10106;51.332;12.336;2022-09-29T04:42:13;5.60;99.90
19888;DHT22;10106;51.332;12.336;2022-09-29T04:44:38;5.60;99.90
19888;DHT22;10106;51.332;12.336;2022-09-29T04:47:04;5.50;99.90
19888;DHT22;10106;51.332;12.336;2022-09-29T04:49:30;5.50;99.90
19888;DHT22;10106;51.332;12.336;2022-09-29T04:51:55;5.40;99.90
19888;DHT22;10106;51.332;12.336;2022-09-29T04:54:21;5.50;99.90
19888;DHT22;10106;51.332;12.336;2022-09-29T04:56:47;5.40;99.90
19888;DHT22;10106;51.332;12.336;2022-09-29T04:59:12;5.30;99.90
19888;DHT22;10106;51.332;12.336;2022-09-29T05:06:49;5.20;99.90
19888;DHT22;10106;51.332;12.336;2022-09-29T05:09:14;5.20;99.90
19888;DHT22;10106;51.332;12.336;2022-09-29T05:11:40;5.30;99.90
19888;DHT22;10106;51.332;12.336;2022-09-29T05:14:05;5.30;99.90
19888;DHT22;10106;51.332;12.336;2022-09-29T05:16:31;5.50;99.90
19888;DHT22;10106;51.332;12.336;2022-09-29T05:18:57;5.70;99.90
19888;DHT22;10106;51.332;12.336;2022-09-29T05:21:22;5.60;99.90
19888;DHT22;10106;51.332;12.336;2022-09-29T05:23:48;5.50;99.90
19888;DHT22;10106;51.332;12.336;2022-09-29T05:26:13;5.50;99.90
19888;DHT22;10106;51.332;12.336;2022-09-29T05:28:42;5.40;99.90
19888;DHT22;10106;51.332;12.336;2022-09-29T05:31:07;5.40;99.90
19888;DHT22;10106;51.332;12.336;2022-09-29T05:33:34;5.50;99.90
19888;DHT22;10106;51.332;12.336;2022-09-29T05:36:00;5.60;99.90
19888;DHT22;10106;51.332;12.336;2022-09-29T05:38:28;5.70;99.90
19888;DHT22;10106;51.332;12.336;2022-09-29T05:40:54;5.80;99.90
19888;DHT22;10106;51.332;12.336;2022-09-29T05:43:19;5.90;99.90
19888;DHT22;10106;51.332;12.336;2022-09-29T05:45:45;6.00;99.90
19888;DHT22;10106;51.332;12.336;2022-09-29T05:48:11;6.10;99.90
19888;DHT22;10106;51.332;12.336;2022-09-29T05:50:36;6.30;99.90
19888;DHT22;10106;51.332;12.336;2022-09-29T05:53:08;6.50;99.90
19888;DHT22;10106;51.332;12.336;2022-09-29T05:55:38;6.90;99.90
19888;DHT22;10106;51.332;12.336;2022-09-29T05:58:04;7.40;99.90
19888;DHT22;10106;51.332;12.336;2022-09-29T06:00:29;7.90;99.90
19888;DHT22;10106;51.332;12.336;2022-09-29T06:02:59;8.10;99.90
19888;DHT22;10106;51.332;12.336;2022-09-29T06:05:25;8.10;99.90
19888;DHT22;10106;51.332;12.336;2022-09-29T06:07:51;8.10;99.90
19888;DHT22;10106;51.332;12.336;2022-09-29T06:10:16;8.30;99.90
19888;DHT22;10106;51.332;12.336;2022-09-29T06:12:45;9.00;99.90
19888;DHT22;10106;51.332;12.336;2022-09-29T06:15:10;10.40;99.90
19888;DHT22;10106;51.332;12.336;2022-09-29T06:17:36;11.80;99.90
19888;DHT22;10106;51.332;12.336;2022-09-29T06:20:02;12.90;99.90
19888;DHT22;10106;51.332;12.336;2022-09-29T06:22:28;12.80;99.90
19888;DHT22;10106;51.332;12.336;2022-09-29T06:24:54;12.20;99.90
19888;DHT22;10106;51.332;12.336;2022-09-29T06:27:19;11.60;99.90
19888;DHT22;10106;51.332;12.336;2022-09-29T06:29:45;11.50;99.90
19888;DHT22;10106;51.332;12.336;2022-09-29T06:32:10;11.80;99.90
19888;DHT22;10106;51.332;12.336;2022-09-29T06:34:36;11.90;99.90
19888;DHT22;10106;51.332;12.336;2022-09-29T06:37:21;13.30;99.90
19888;DHT22;10106;51.332;12.336;2022-09-29T06:39:59;14.60;99.90
19888;DHT22;10106;51.332;12.336;2022-09-29T06:42:25;16.20;99.90
19888;DHT22;10106;51.332;12.336;2022-09-29T06:44:50;17.10;99.90
19888;DHT22;10106;51.332;12.336;2022-09-29T06:47:15;17.60;99.90
19888;DHT22;10106;51.332;12.336;2022-09-29T06:49:41;18.40;99.90
19888;DHT22;10106;51.332;12.336;2022-09-29T06:52:07;18.70;99.90
19888;DHT22;10106;51.332;12.336;2022-09-29T06:54:33;19.60;99.90
19888;DHT22;10106;51.332;12.336;2022-09-29T06:56:58;20.20;99.90
19888;DHT22;10106;51.332;12.336;2022-09-29T06:59:25;21.10;99.90
19888;DHT22;10106;51.332;12.336;2022-09-29T07:01:50;21.20;99.30
19888;DHT22;10106;51.332;12.336;2022-09-29T07:04:16;21.50;98.30
19888;DHT22;10106;51.332;12.336;2022-09-29T07:06:43;20.80;95.00
19888;DHT22;10106;51.332;12.336;2022-09-29T07:09:10;19.80;96.40
19888;DHT22;10106;51.332;12.336;2022-09-29T07:11:44;19.30;99.20
19888;DHT22;10106;51.332;12.336;2022-09-29T07:14:13;20.90;97.50
19888;DHT22;10106;51.332;12.336;2022-09-29T07:16:38;23.10;91.10
19888;DHT22;10106;51.332;12.336;2022-09-29T07:19:04;24.40;82.70
19888;DHT22;10106;51.332;12.336;2022-09-29T07:21:30;24.90;75.70
19888;DHT22;10106;51.332;12.336;2022-09-29T07:23:55;25.60;72.30
19888;DHT22;10106;51.332;12.336;2022-09-29T07:26:21;25.80;68.30
19888;DHT22;10106;51.332;12.336;2022-09-29T07:28:46;25.70;68.50
19888;DHT22;10106;51.332;12.336;2022-09-29T07:31:17;25.40;68.40
19888;DHT22;10106;51.332;12.336;2022-09-29T07:33:44;25.90;65.40
19888;DHT22;10106;51.332;12.336;2022-09-29T07:36:11;26.80;62.90
19888;DHT22;10106;51.332;12.336;2022-09-29T07:38:37;27.70;60.30
19888;DHT22;10106;51.332;12.336;2022-09-29T07:41:05;27.50;58.20
19888;DHT22;10106;51.332;12.336;2022-09-29T07:43:32;27.80;57.60
19888;DHT22;10106;51.332;12.336;2022-09-29T07:45:57;28.00;57.20
19888;DHT22;10106;51.332;12.336;2022-09-29T07:48:27;28.00;56.90
19888;DHT22;10106;51.332;12.336;2022-09-29T07:51:20;28.10;56.20
19888;DHT22;10106;51.332;12.336;2022-09-29T07:53:45;28.50;55.10
19888;DHT22;10106;51.332;12.336;2022-09-29T07:56:16;28.90;54.20
19888;DHT22;10106;51.332;12.336;2022-09-29T07:58:44;29.20;53.60
19888;DHT22;10106;51.332;12.336;2022-09-29T08:01:11;28.60;53.10
19888;DHT22;10106;51.332;12.336;2022-09-29T08:03:41;28.30;53.40
19888;DHT22;10106;51.332;12.336;2022-09-29T08:06:08;28.30;53.50
19888;DHT22;10106;51.332;12.336;2022-09-29T08:08:35;28.50;53.50
19888;DHT22;10106;51.332;12.336;2022-09-29T08:11:08;28.20;52.90
19888;DHT22;10106;51.332;12.336;2022-09-29T08:13:35;28.20;53.80
19888;DHT22;10106;51.332;12.336;2022-09-29T08:16:03;28.20;53.60
19888;DHT22;10106;51.332;12.336;2022-09-29T08:18:29;28.10;52.80
19888;DHT22;10106;51.332;12.336;2022-09-29T08:20:57;28.20;53.20
19888;DHT22;10106;51.332;12.336;2022-09-29T08:23:23;28.20;52.70
19888;DHT22;10106;51.332;12.336;2022-09-29T08:25:49;28.30;52.70
19888;DHT22;10106;51.332;12.336;2022-09-29T08:28:15;28.60;51.90
19888;DHT22;10106;51.332;12.336;2022-09-29T08:30:41;28.60;51.90
19888;DHT22;10106;51.332;12.336;2022-09-29T08:33:07;28.20;51.60
19888;DHT22;10106;51.332;12.336;2022-09-29T08:35:39;28.50;52.00
19888;DHT22;10106;51.332;12.336;2022-09-29T08:38:04;28.00;50.80
19888;DHT22;10106;51.332;12.336;2022-09-29T08:40:30;27.80;51.80
19888;DHT22;10106;51.332;12.336;2022-09-29T08:43:15;28.10;52.60
19888;DHT22;10106;51.332;12.336;2022-09-29T08:45:56;28.40;51.20
19888;DHT22;10106;51.332;12.336;2022-09-29T08:48:25;28.70;51.30
19888;DHT22;10106;51.332;12.336;2022-09-29T08:51:04;28.60;50.30
19888;DHT22;10106;51.332;12.336;2022-09-29T08:53:34;28.80;51.30
19888;DHT22;10106;51.332;12.336;2022-09-29T08:56:16;29.10;51.10
19888;DHT22;10106;51.332;12.336;2022-09-29T08:58:42;30.30;50.20
19888;DHT22;10106;51.332;12.336;2022-09-29T09:01:32;29.70;49.20
19888;DHT22;10106;51.332;12.336;2022-09-29T09:09:56;29.70;48.80
19888;DHT22;10106;51.332;12.336;2022-09-29T09:15:18;30.60;48.50
19888;DHT22;10106;51.332;12.336;2022-09-29T09:20:35;29.30;47.90
19888;DHT22;10106;51.332;12.336;2022-09-29T09:23:07;29.20;48.70
19888;DHT22;10106;51.332;12.336;2022-09-29T09:25:45;29.20;48.40
19888;DHT22;10106;51.332;12.336;2022-09-29T09:28:21;29.00;48.30
19888;DHT22;10106;51.332;12.336;2022-09-29T09:38:49;29.80;48.30
19888;DHT22;10106;51.332;12.336;2022-09-29T09:41:21;30.10;47.70
19888;DHT22;10106;51.332;12.336;2022-09-29T09:43:52;30.20;48.00
19888;DHT22;10106;51.332;12.336;2022-09-29T09:46:43;29.90;47.70
19888;DHT22;10106;51.332;12.336;2022-09-29T09:49:12;26.40;49.90
19888;DHT22;10106;51.332;12.336;2022-09-29T09:52:03;23.70;54.10
19888;DHT22;10106;51.332;12.336;2022-09-29T09:56:58;20.20;57.70
19888;DHT22;10106;51.332;12.336;2022-09-29T09:59:38;19.00;64.30
19888;DHT22;10106;51.332;12.336;2022-09-29T10:02:18;18.20;70.80
19888;DHT22;10106;51.332;12.336;2022-09-29T10:04:50;17.90;79.40
19888;DHT22;10106;51.332;12.336;2022-09-29T10:07:20;17.70;80.30
19888;DHT22;10106;51.332;12.336;2022-09-29T10:09:47;17.40;81.60
19888;DHT22;10106;51.332;12.336;2022-09-29T10:12:21;17.40;82.50
19888;DHT22;10106;51.332;12.336;2022-09-29T10:14:53;17.40;85.40
19888;DHT22;10106;51.332;12.336;2022-09-29T10:17:23;17.50;85.00
19888;DHT22;10106;51.332;12.336;2022-09-29T10:20:02;17.50;88.20
19888;DHT22;10106;51.332;12.336;2022-09-29T10:22:30;17.50;87.60
19888;DHT22;10106;51.332;12.336;2022-09-29T10:25:17;17.50;90.60
19888;DHT22;10106;51.332;12.336;2022-09-29T10:27:48;17.20;91.30
19888;DHT22;10106;51.332;12.336;2022-09-29T10:30:32;16.80;92.10
19888;DHT22;10106;51.332;12.336;2022-09-29T10:32:59;16.60;93.40
19888;DHT22;10106;51.332;12.336;2022-09-29T10:35:27;16.20;95.70
19888;DHT22;10106;51.332;12.336;2022-09-29T10:38:00;16.20;97.90
19888;DHT22;10106;51.332;12.336;2022-09-29T10:40:26;16.10;98.20
19888;DHT22;10106;51.332;12.336;2022-09-29T10:42:52;16.10;99.30
19888;DHT22;10106;51.332;12.336;2022-09-29T10:45:19;16.20;99.10
19888;DHT22;10106;51.332;12.336;2022-09-29T10:50:30;16.30;98.30
19888;DHT22;10106;51.332;12.336;2022-09-29T10:53:05;16.30;99.10
19888;DHT22;10106;51.332;12.336;2022-09-29T10:55:48;16.30;99.00
19888;DHT22;10106;51.332;12.336;2022-09-29T10:58:20;16.60;98.20
19888;DHT22;10106;51.332;12.336;2022-09-29T11:00:46;16.70;96.10
19888;DHT22;10106;51.332;12.336;2022-09-29T11:03:20;16.70;97.00
19888;DHT22;10106;51.332;12.336;2022-09-29T11:06:05;16.60;97.50
19888;DHT22;10106;51.332;12.336;2022-09-29T11:08:33;16.50;98.30
19888;DHT22;10106;51.332;12.336;2022-09-29T11:11:35;16.70;99.10
19888;DHT22;10106;51.332;12.336;2022-09-29T11:14:01;16.60;99.20
19888;DHT22;10106;51.332;12.336;2022-09-29T11:16:34;16.40;98.80
19888;DHT22;10106;51.332;12.336;2022-09-29T11:19:01;16.30;98.70
19888;DHT22;10106;51.332;12.336;2022-09-29T11:21:40;16.10;99.50
19888;DHT22;10106;51.332;12.336;2022-09-29T11:39:43;16.20;99.90
19888;DHT22;10106;51.332;12.336;2022-09-29T11:45:01;15.90;99.90
19888;DHT22;10106;51.332;12.336;2022-09-29T12:00:17;15.20;99.90
19888;DHT22;10106;51.332;12.336;2022-09-29T12:13:14;16.10;99.90
19888;DHT22;10106;51.332;12.336;2022-09-29T12:18:15;16.70;99.90
19888;DHT22;10106;51.332;12.336;2022-09-29T12:20:44;16.70;99.80
19888;DHT22;10106;51.332;12.336;2022-09-29T12:23:11;16.70;99.70
19888;DHT22;10106;51.332;12.336;2022-09-29T12:25:39;16.70;99.00
19888;DHT22;10106;51.332;12.336;2022-09-29T12:28:16;16.90;98.80
19888;DHT22;10106;51.332;12.336;2022-09-29T12:30:45;17.00;98.20
19888;DHT22;10106;51.332;12.336;2022-09-29T12:38:34;16.80;99.90
19888;DHT22;10106;51.332;12.336;2022-09-29T12:41:15;16.70;99.70
19888;DHT22;10106;51.332;12.336;2022-09-29T12:46:57;16.20;99.90
19888;DHT22;10106;51.332;12.336;2022-09-29T12:49:20;16.00;99.90
19888;DHT22;10106;51.332;12.336;2022-09-29T12:51:50;15.80;99.90
19888;DHT22;10106;51.332;12.336;2022-09-29T12:54:27;15.70;99.90
19888;DHT22;10106;51.332;12.336;2022-09-29T12:57:00;15.60;99.90
19888;DHT22;10106;51.332;12.336;2022-09-29T12:59:32;15.40;99.90
19888;DHT22;10106;51.332;12.336;2022-09-29T13:01:59;15.30;99.90
19888;DHT22;10106;51.332;12.336;2022-09-29T13:09:57;15.40;99.90
19888;DHT22;10106;51.332;12.336;2022-09-29T13:20:47;15.90;99.20
19888;DHT22;10106;51.332;12.336;2022-09-29T13:26:00;16.00;99.70
19888;DHT22;10106;51.332;12.336;2022-09-29T13:28:33;16.00;99.90
19888;DHT22;10106;51.332;12.336;2022-09-29T13:31:04;16.20;99.20
19888;DHT22;10106;51.332;12.336;2022-09-29T13:33:38;16.30;98.70
19888;DHT22;10106;51.332;12.336;2022-09-29T13:36:06;16.40;98.00
19888;DHT22;10106;51.332;12.336;2022-09-29T13:38:35;16.40;98.20
19888;DHT22;10106;51.332;12.336;2022-09-29T13:56:38;16.20;95.40
19888;DHT22;10106;51.332;12.336;2022-09-29T13:59:10;15.90;96.30
19888;DHT22;10106;51.332;12.336;2022-09-29T14:01:37;15.70;96.90
19888;DHT22;10106;51.332;12.336;2022-09-29T14:06:47;15.60;97.90
19888;DHT22;10106;51.332;12.336;2022-09-29T14:09:20;15.50;98.10
19888;DHT22;10106;51.332;12.336;2022-09-29T14:11:56;15.40;99.00
19888;DHT22;10106;51.332;12.336;2022-09-29T14:14:33;15.40;99.70
19888;DHT22;10106;51.332;12.336;2022-09-29T14:21:56;15.40;99.00
19888;DHT22;10106;51.332;12.336;2022-09-29T14:27:22;15.40;99.00
19888;DHT22;10106;51.332;12.336;2022-09-29T14:29:49;15.40;99.70
19888;DHT22;10106;51.332;12.336;2022-09-29T14:32:19;15.40;99.90
19888;DHT22;10106;51.332;12.336;2022-09-29T14:34:46;15.20;99.90
19888;DHT22;10106;51.332;12.336;2022-09-29T14:37:17;15.20;99.90
19888;DHT22;10106;51.332;12.336;2022-09-29T14:39:44;15.20;99.90
19888;DHT22;10106;51.332;12.336;2022-09-29T14:42:30;15.20;99.90
19888;DHT22;10106;51.332;12.336;2022-09-29T14:44:59;15.30;99.90
19888;DHT22;10106;51.332;12.336;2022-09-29T14:50:37;15.30;99.90
19888;DHT22;10106;51.332;12.336;2022-09-29T15:03:26;15.30;99.90
19888;DHT22;10106;51.332;12.336;2022-09-29T15:08:36;15.10;99.90
19888;DHT22;10106;51.332;12.336;2022-09-29T15:11:21;15.00;99.90
19888;DHT22;10106;51.332;12.336;2022-09-29T15:13:47;15.00;99.90
19888;DHT22;10106;51.332;12.336;2022-09-29T15:16:19;14.90;99.90
19888;DHT22;10106;51.332;12.336;2022-09-29T15:19:07;14.80;99.90
19888;DHT22;10106;51.332;12.336;2022-09-29T15:21:39;14.70;99.90
19888;DHT22;10106;51.332;12.336;2022-09-29T15:24:16;14.60;99.90
19888;DHT22;10106;51.332;12.336;2022-09-29T15:26:46;14.50;99.90
19888;DHT22;10106;51.332;12.336;2022-09-29T15:29:13;14.50;99.90
19888;DHT22;10106;51.332;12.336;2022-09-29T15:31:39;14.50;99.90
19888;DHT22;10106;51.332;12.336;2022-09-29T15:34:08;14.50;99.90
19888;DHT22;10106;51.332;12.336;2022-09-29T15:36:37;14.60;99.90
19888;DHT22;10106;51.332;12.336;2022-09-29T15:39:12;14.50;99.90
19888;DHT22;10106;51.332;12.336;2022-09-29T15:42:02;14.40;99.90
19888;DHT22;10106;51.332;12.336;2022-09-29T15:44:28;14.30;99.90
19888;DHT22;10106;51.332;12.336;2022-09-29T15:46:58;14.20;99.90
19888;DHT22;10106;51.332;12.336;2022-09-29T15:49:24;14.10;99.90
19888;DHT22;10106;51.332;12.336;2022-09-29T15:54:19;14.00;99.90
19888;DHT22;10106;51.332;12.336;2022-09-29T15:56:45;13.90;99.90
19888;DHT22;10106;51.332;12.336;2022-09-29T15:59:39;13.80;99.90
19888;DHT22;10106;51.332;12.336;2022-09-29T16:02:40;13.80;99.90
19888;DHT22;10106;51.332;12.336;2022-09-29T16:05:04;13.70;99.90
19888;DHT22;10106;51.332;12.336;2022-09-29T16:07:32;13.50;99.90
19888;DHT22;10106;51.332;12.336;2022-09-29T16:10:00;13.50;99.90
19888;DHT22;10106;51.332;12.336;2022-09-29T16:12:26;13.00;99.90
19888;DHT22;10106;51.332;12.336;2022-09-29T16:14:54;13.30;99.90
19888;DHT22;10106;51.332;12.336;2022-09-29T16:17:21;13.20;99.90
19888;DHT22;10106;51.332;12.336;2022-09-29T16:19:47;13.00;99.90
19888;DHT22;10106;51.332;12.336;2022-09-29T16:22:17;12.90;99.90
19888;DHT22;10106;51.332;12.336;2022-09-29T16:27:40;12.80;99.90
19888;DHT22;10106;51.332;12.336;2022-09-29T16:30:17;12.70;99.90
19888;DHT22;10106;51.332;12.336;2022-09-29T16:32:43;12.70;99.90
19888;DHT22;10106;51.332;12.336;2022-09-29T16:37:56;12.50;99.90
19888;DHT22;10106;51.332;12.336;2022-09-29T16:40:22;12.40;99.90
19888;DHT22;10106;51.332;12.336;2022-09-29T16:42:50;12.30;99.90
19888;DHT22;10106;51.332;12.336;2022-09-29T16:45:16;12.30;99.90
19888;DHT22;10106;51.332;12.336;2022-09-29T16:47:44;12.20;99.90
19888;DHT22;10106;51.332;12.336;2022-09-29T16:50:12;12.20;99.90
19888;DHT22;10106;51.332;12.336;2022-09-29T16:52:48;12.20;99.90
19888;DHT22;10106;51.332;12.336;2022-09-29T16:55:18;12.10;99.90
19888;DHT22;10106;51.332;12.336;2022-09-29T16:57:58;12.10;99.90
19888;DHT22;10106;51.332;12.336;2022-09-29T17:00:24;12.00;99.90
19888;DHT22;10106;51.332;12.336;2022-09-29T17:02:50;11.90;99.90
19888;DHT22;10106;51.332;12.336;2022-09-29T17:05:16;11.90;99.90
19888;DHT22;10106;51.332;12.336;2022-09-29T17:07:42;11.90;99.90
19888;DHT22;10106;51.332;12.336;2022-09-29T17:10:17;11.80;99.90
19888;DHT22;10106;51.332;12.336;2022-09-29T17:12:43;11.80;99.90
19888;DHT22;10106;51.332;12.336;2022-09-29T17:15:12;11.80;99.90
19888;DHT22;10106;51.332;12.336;2022-09-29T17:17:38;11.80;99.90
19888;DHT22;10106;51.332;12.336;2022-09-29T17:20:13;11.80;99.90
19888;DHT22;10106;51.332;12.336;2022-09-29T17:22:40;11.70;99.90
19888;DHT22;10106;51.332;12.336;2022-09-29T17:25:06;11.70;99.90
19888;DHT22;10106;51.332;12.336;2022-09-29T17:27:32;11.70;99.90
19888;DHT22;10106;51.332;12.336;2022-09-29T17:30:17;11.70;99.90
19888;DHT22;10106;51.332;12.336;2022-09-29T17:32:45;11.70;99.90
19888;DHT22;10106;51.332;12.336;2022-09-29T17:35:15;11.70;99.90
19888;DHT22;10106;51.332;12.336;2022-09-29T17:37:41;11.70;99.90
19888;DHT22;10106;51.332;12.336;2022-09-29T17:40:14;11.70;99.90
19888;DHT22;10106;51.332;12.336;2022-09-29T17:42:41;11.60;99.90
19888;DHT22;10106;51.332;12.336;2022-09-29T17:45:07;11.60;99.90
19888;DHT22;10106;51.332;12.336;2022-09-29T17:47:32;11.50;99.90
19888;DHT22;10106;51.332;12.336;2022-09-29T17:49:59;11.50;99.90
19888;DHT22;10106;51.332;12.336;2022-09-29T17:52:38;11.50;99.90
19888;DHT22;10106;51.332;12.336;2022-09-29T17:55:06;11.40;99.90
19888;DHT22;10106;51.332;12.336;2022-09-29T17:57:36;11.30;99.90
19888;DHT22;10106;51.332;12.336;2022-09-29T18:00:03;11.30;99.90
19888;DHT22;10106;51.332;12.336;2022-09-29T18:02:29;11.20;99.90
19888;DHT22;10106;51.332;12.336;2022-09-29T18:04:54;11.20;99.90
19888;DHT22;10106;51.332;12.336;2022-09-29T18:07:20;11.10;99.90
19888;DHT22;10106;51.332;12.336;2022-09-29T18:09:46;11.10;99.90
19888;DHT22;10106;51.332;12.336;2022-09-29T18:12:11;11.00;99.90
19888;DHT22;10106;51.332;12.336;2022-09-29T18:14:40;10.90;99.90
19888;DHT22;10106;51.332;12.336;2022-09-29T18:17:06;10.90;99.90
19888;DHT22;10106;51.332;12.336;2022-09-29T18:19:31;10.80;99.90
19888;DHT22;10106;51.332;12.336;2022-09-29T18:22:00;10.80;99.90
19888;DHT22;10106;51.332;12.336;2022-09-29T18:24:30;10.80;99.90
19888;DHT22;10106;51.332;12.336;2022-09-29T18:26:56;10.60;99.90
19888;DHT22;10106;51.332;12.336;2022-09-29T18:29:22;10.60;99.90
19888;DHT22;10106;51.332;12.336;2022-09-29T18:31:47;10.40;99.90
19888;DHT22;10106;51.332;12.336;2022-09-29T18:34:14;10.40;99.90